createdAt,value
2022-12-16T00:01:18.732Z,155.60
2022-12-16T00:03:49.145Z,161.40
2022-12-16T00:06:20.167Z,145.60
2022-12-16T00:08:48.037Z,144.87
2022-12-16T00:11:17.353Z,137.27
2022-12-16T00:13:45.166Z,139.43
2022-12-16T00:16:15.280Z,136.33
2022-12-16T00:18:43.719Z,145.77
2022-12-16T00:21:12.012Z,148.53
2022-12-16T00:23:41.897Z,150.13
2022-12-16T00:26:10.529Z,170.70
2022-12-16T00:28:40.736Z,170.27
2022-12-16T00:31:08.709Z,155.03
2022-12-16T00:33:36.953Z,180.03
2022-12-16T00:36:05.518Z,178.30
2022-12-16T00:38:33.407Z,169.63
2022-12-16T00:41:01.540Z,170.60
2022-12-16T00:43:29.506Z,165.20
2022-12-16T00:45:58.954Z,154.47
2022-12-16T00:48:26.814Z,172.47
2022-12-16T00:50:55.794Z,168.33
2022-12-16T00:53:25.687Z,166.87
2022-12-16T00:55:53.893Z,145.40
2022-12-16T00:58:21.767Z,157.43
2022-12-16T01:00:49.678Z,205.63
2022-12-16T01:03:22.005Z,183.10
2022-12-16T01:05:50.244Z,164.47
2022-12-16T01:08:18.444Z,195.57
2022-12-16T01:10:52.084Z,176.00
2022-12-16T01:13:20.730Z,191.33
2022-12-16T01:15:49.930Z,153.53
2022-12-16T01:18:18.791Z,158.17
2022-12-16T01:20:48.043Z,215.33
2022-12-16T01:23:15.870Z,209.20
2022-12-16T01:25:43.708Z,250.37
2022-12-16T01:28:11.591Z,184.97
2022-12-16T01:30:39.510Z,211.70
2022-12-16T01:33:07.356Z,204.90
2022-12-16T01:35:55.207Z,167.20
2022-12-16T01:38:25.468Z,270.97
2022-12-16T01:40:55.900Z,253.70
2022-12-16T01:43:26.494Z,164.77
2022-12-16T01:45:58.149Z,285.20
2022-12-16T01:48:39.963Z,214.67
2022-12-16T01:51:11.525Z,195.90
2022-12-16T01:53:43.902Z,419.83
2022-12-16T01:56:17.282Z,466.93
2022-12-16T01:58:47.085Z,386.13
2022-12-16T02:01:17.556Z,182.07
2022-12-16T02:03:46.077Z,224.90
2022-12-16T02:06:13.964Z,206.37
2022-12-16T02:08:43.123Z,182.33
2022-12-16T02:11:46.930Z,202.60
2022-12-16T02:14:30.177Z,208.87
2022-12-16T02:17:03.057Z,304.03
2022-12-16T02:20:01.754Z,192.60
2022-12-16T02:22:38.550Z,168.80
2022-12-16T02:25:33.849Z,207.37
2022-12-16T02:28:09.647Z,199.70
2022-12-16T02:30:49.276Z,348.27
2022-12-16T02:33:53.145Z,284.97
2022-12-16T02:36:33.420Z,343.77
2022-12-16T02:39:06.418Z,246.23
2022-12-16T02:41:44.278Z,478.47
2022-12-16T02:44:13.435Z,240.97
2022-12-16T02:46:44.415Z,272.97
2022-12-16T02:49:47.637Z,265.57
2022-12-16T02:52:17.022Z,180.83
2022-12-16T02:54:45.967Z,164.40
2022-12-16T02:57:29.635Z,236.27
2022-12-16T03:00:03.547Z,207.83
2022-12-16T03:02:39.429Z,127.27
2022-12-16T03:05:14.202Z,118.50
2022-12-16T03:07:44.427Z,126.83
2022-12-16T03:10:16.252Z,140.77
2022-12-16T03:12:46.937Z,152.70
2022-12-16T03:15:18.119Z,155.37
2022-12-16T03:17:49.471Z,117.37
2022-12-16T03:20:23.468Z,105.73
2022-12-16T03:22:55.792Z,142.17
2022-12-16T03:25:24.922Z,130.93
2022-12-16T03:28:00.389Z,154.90
2022-12-16T03:30:33.446Z,142.63
2022-12-16T03:33:05.528Z,118.67
2022-12-16T03:35:38.086Z,106.30
2022-12-16T03:38:09.986Z,113.87
2022-12-16T03:40:39.805Z,117.10
2022-12-16T03:43:09.084Z,112.57
2022-12-16T03:45:39.957Z,104.70
2022-12-16T03:48:11.411Z,107.13
2022-12-16T03:50:40.626Z,103.93
2022-12-16T03:53:09.957Z,91.63
2022-12-16T03:55:37.826Z,106.50
2022-12-16T03:58:05.676Z,103.00
2022-12-16T04:00:33.654Z,90.80
2022-12-16T04:03:01.684Z,84.27
2022-12-16T04:05:31.080Z,91.47
2022-12-16T04:08:02.208Z,92.90
2022-12-16T04:10:44.249Z,97.17
2022-12-16T04:13:29.903Z,102.17
2022-12-16T04:16:15.578Z,104.47
2022-12-16T04:19:01.375Z,86.63
2022-12-16T04:21:56.367Z,91.13
2022-12-16T04:24:27.136Z,80.83
2022-12-16T04:27:15.716Z,87.10
2022-12-16T04:29:57.868Z,80.43
2022-12-16T04:32:25.801Z,78.70
2022-12-16T04:34:52.962Z,83.60
2022-12-16T04:37:39.721Z,75.90
2022-12-16T04:40:26.279Z,73.80
2022-12-16T04:43:11.590Z,75.53
2022-12-16T04:45:57.927Z,68.13
2022-12-16T04:48:43.347Z,71.43
2022-12-16T04:51:28.782Z,70.93
2022-12-16T04:54:15.580Z,78.30
2022-12-16T04:57:01.105Z,73.17
2022-12-16T04:59:46.269Z,69.80
2022-12-16T05:02:31.575Z,69.70
2022-12-16T05:05:16.901Z,73.03
2022-12-16T05:08:02.317Z,66.67
2022-12-16T05:10:48.810Z,72.10
2022-12-16T05:13:34.809Z,68.53
2022-12-16T05:16:20.544Z,69.37
2022-12-16T05:19:05.720Z,72.57
2022-12-16T05:21:50.939Z,76.07
2022-12-16T05:24:36.230Z,76.80
2022-12-16T05:27:22.818Z,70.90
2022-12-16T05:30:08.210Z,70.37
2022-12-16T05:32:53.629Z,79.10
2022-12-16T05:35:49.451Z,67.37
2022-12-16T05:38:35.054Z,69.10
2022-12-16T05:41:20.087Z,58.20
2022-12-16T05:44:05.908Z,76.93
2022-12-16T05:46:51.455Z,88.93
2022-12-16T05:49:36.584Z,85.50
2022-12-16T05:52:24.520Z,94.10
2022-12-16T05:55:09.890Z,99.40
2022-12-16T05:57:55.097Z,96.10
2022-12-16T06:00:42.136Z,99.00
2022-12-16T06:03:27.554Z,102.23
2022-12-16T06:06:13.425Z,99.27
2022-12-16T06:08:58.844Z,104.90
2022-12-16T06:11:43.846Z,95.00
2022-12-16T06:14:29.281Z,98.17
2022-12-16T06:17:16.298Z,102.90
2022-12-16T06:20:01.904Z,97.43
2022-12-16T06:22:47.322Z,95.37
2022-12-16T06:25:32.635Z,99.83
2022-12-16T06:28:17.726Z,80.37
2022-12-16T06:31:03.178Z,95.47
2022-12-16T06:33:54.630Z,80.90
2022-12-16T06:36:40.758Z,82.47
2022-12-16T06:39:26.388Z,81.50
2022-12-16T06:42:11.531Z,89.00
2022-12-16T06:44:56.970Z,75.70
2022-12-16T06:47:42.382Z,72.97
2022-12-16T06:50:29.452Z,65.17
2022-12-16T06:53:15.024Z,68.37
2022-12-16T06:56:00.378Z,68.57
2022-12-16T06:58:45.773Z,66.77
2022-12-16T07:01:31.409Z,63.20
2022-12-16T07:04:16.658Z,65.23
2022-12-16T07:07:03.510Z,57.73
2022-12-16T07:09:48.931Z,62.10
2022-12-16T07:12:34.031Z,62.23
2022-12-16T07:15:19.433Z,60.57
2022-12-16T07:18:04.924Z,71.77
2022-12-16T07:20:50.595Z,66.87
2022-12-16T07:23:37.506Z,69.53
2022-12-16T07:26:22.989Z,76.37
2022-12-16T07:29:08.650Z,71.77
2022-12-16T07:31:54.123Z,70.80
2022-12-16T07:37:29.445Z,65.93
2022-12-16T07:46:05.364Z,60.77
2022-12-16T07:48:50.569Z,57.17
2022-12-16T07:51:36.388Z,64.17
2022-12-16T07:54:21.797Z,59.30
2022-12-16T07:57:13.761Z,61.23
2022-12-16T07:59:59.133Z,67.17
2022-12-16T08:02:44.364Z,70.33
2022-12-16T08:05:29.959Z,69.83
2022-12-16T08:08:19.225Z,64.47
2022-12-16T08:11:04.491Z,68.97
2022-12-16T08:13:51.142Z,63.77
2022-12-16T08:16:36.357Z,62.60
2022-12-16T08:19:21.512Z,60.30
2022-12-16T08:22:06.888Z,56.97
2022-12-16T08:24:53.809Z,58.00
2022-12-16T08:27:41.239Z,60.83
2022-12-16T08:30:29.194Z,61.97
2022-12-16T08:33:19.275Z,55.70
2022-12-16T08:36:05.720Z,57.27
2022-12-16T08:38:50.954Z,58.27
2022-12-16T08:41:36.479Z,58.90
2022-12-16T08:44:21.765Z,57.40
2022-12-16T08:47:08.633Z,62.50
2022-12-16T08:49:57.722Z,54.33
2022-12-16T08:52:47.172Z,56.23
2022-12-16T08:55:32.385Z,48.60
2022-12-16T08:58:17.673Z,50.80
2022-12-16T09:01:07.066Z,46.73
2022-12-16T09:03:54.635Z,47.53
2022-12-16T09:06:41.206Z,47.80
2022-12-16T09:09:27.448Z,47.90
2022-12-16T09:12:13.005Z,44.93
2022-12-16T09:15:09.965Z,49.13
2022-12-16T09:17:55.467Z,46.40
2022-12-16T09:20:42.737Z,45.33
2022-12-16T09:23:28.250Z,45.00
2022-12-16T09:26:13.770Z,46.47
2022-12-16T09:28:59.001Z,44.10
2022-12-16T09:31:44.213Z,46.67
2022-12-16T09:34:29.686Z,45.23
2022-12-16T09:37:16.574Z,47.17
2022-12-16T09:40:01.944Z,48.53
2022-12-16T09:42:55.961Z,51.70
2022-12-16T09:45:51.265Z,47.30
2022-12-16T09:48:47.760Z,46.60
2022-12-16T09:51:33.629Z,53.63
2022-12-16T09:54:21.804Z,53.17
2022-12-16T09:57:08.446Z,56.50
2022-12-16T09:59:59.265Z,49.93
2022-12-16T10:02:45.276Z,59.90
2022-12-16T10:05:33.360Z,52.30
2022-12-16T10:08:25.196Z,47.67
2022-12-16T10:11:17.658Z,43.20
2022-12-16T10:14:15.988Z,42.92
2022-12-16T10:17:10.241Z,43.50
2022-12-16T10:20:09.930Z,45.08
2022-12-16T10:23:02.092Z,47.20
2022-12-16T10:25:54.982Z,42.17
2022-12-16T10:28:58.158Z,40.63
2022-12-16T10:31:44.094Z,41.05
2022-12-16T10:34:32.650Z,43.13
2022-12-16T10:37:21.150Z,44.05
2022-12-16T10:40:26.165Z,43.65
2022-12-16T10:43:22.555Z,40.05
2022-12-16T10:46:12.435Z,42.03
2022-12-16T10:48:57.900Z,39.97
2022-12-16T10:51:47.228Z,39.78
2022-12-16T10:54:51.848Z,39.50
2022-12-16T10:57:49.157Z,37.67
2022-12-16T11:00:37.626Z,37.13
2022-12-16T11:03:39.737Z,39.45
2022-12-16T11:06:26.536Z,40.15
2022-12-16T11:09:12.079Z,39.83
2022-12-16T11:11:57.443Z,36.90
2022-12-16T11:15:27.583Z,37.95
2022-12-16T11:17:50.694Z,36.22
2022-12-16T11:20:40.179Z,31.88
2022-12-16T11:23:34.328Z,31.55
2022-12-16T11:26:36.653Z,33.95
2022-12-16T11:29:33.682Z,37.90
2022-12-16T11:32:29.387Z,37.35
2022-12-16T11:35:17.872Z,37.67
2022-12-16T11:38:06.542Z,35.47
2022-12-16T11:40:52.606Z,34.92
2022-12-16T11:43:38.998Z,43.17
2022-12-16T11:46:32.135Z,36.75
2022-12-16T11:49:24.696Z,39.78
2022-12-16T11:52:36.011Z,33.25
2022-12-16T11:56:04.596Z,36.35
2022-12-16T11:58:50.198Z,35.17
2022-12-16T12:01:44.895Z,35.78
2022-12-16T12:04:31.901Z,32.20
2022-12-16T12:07:46.942Z,33.15
2022-12-16T12:10:56.909Z,31.17
2022-12-16T12:14:01.281Z,31.83
2022-12-16T12:16:55.233Z,32.67
2022-12-16T12:19:50.635Z,31.65
2022-12-16T12:22:45.614Z,31.55
2022-12-16T12:25:44.238Z,33.85
2022-12-16T12:28:41.308Z,28.60
2022-12-16T12:31:41.864Z,29.63
2022-12-16T12:34:40.309Z,25.92
2022-12-16T12:37:34.424Z,25.00
2022-12-16T12:40:28.829Z,25.08
2022-12-16T12:43:15.484Z,23.83
2022-12-16T12:46:17.574Z,26.35
2022-12-16T12:49:10.392Z,24.90
2022-12-16T12:52:04.682Z,25.67
2022-12-16T12:54:55.135Z,26.65
2022-12-16T12:57:44.500Z,25.70
2022-12-16T13:00:37.040Z,26.30
2022-12-16T13:03:31.423Z,24.63
2022-12-16T13:06:18.919Z,27.23
2022-12-16T13:09:14.388Z,25.15
2022-12-16T13:12:41.944Z,28.70
2022-12-16T13:15:29.382Z,26.40
2022-12-16T13:18:50.801Z,30.30
2022-12-16T13:22:03.677Z,31.42
2022-12-16T13:25:01.172Z,31.83
2022-12-16T13:27:47.989Z,38.72
2022-12-16T13:30:42.772Z,34.57
2022-12-16T13:33:42.242Z,32.53
2022-12-16T13:36:29.702Z,32.20
2022-12-16T13:39:20.793Z,34.53
2022-12-16T13:42:09.205Z,37.53
2022-12-16T13:45:14.154Z,37.70
2022-12-16T13:48:19.540Z,37.57
2022-12-16T13:51:06.911Z,41.43
2022-12-16T13:53:56.805Z,37.33
2022-12-16T13:56:47.544Z,38.43
2022-12-16T13:59:37.107Z,39.60
2022-12-16T14:02:42.712Z,38.67
2022-12-16T14:05:36.971Z,40.63
2022-12-16T14:08:25.343Z,37.33
2022-12-16T14:11:17.914Z,29.23
2022-12-16T14:14:11.698Z,26.97
2022-12-16T14:17:10.161Z,31.43
2022-12-16T14:20:13.105Z,31.20
2022-12-16T14:23:14.914Z,30.40
2022-12-16T14:26:15.923Z,24.17
2022-12-16T14:29:03.256Z,23.87
2022-12-16T14:31:54.568Z,19.03
2022-12-16T14:34:41.427Z,22.07
2022-12-16T14:37:32.009Z,26.10
2022-12-16T14:40:17.625Z,26.10
2022-12-16T14:43:05.305Z,33.87
2022-12-16T14:45:55.470Z,32.57
2022-12-16T14:48:49.543Z,35.87
2022-12-16T14:51:44.305Z,36.67
2022-12-16T14:54:47.094Z,34.83
2022-12-16T14:57:35.037Z,26.67
2022-12-16T15:00:31.712Z,22.67
2022-12-16T15:03:24.278Z,24.10
2022-12-16T15:06:12.647Z,31.77
2022-12-16T15:09:06.818Z,38.10
2022-12-16T15:11:53.637Z,31.07
2022-12-16T15:14:45.070Z,23.57
2022-12-16T15:17:39.623Z,28.67
2022-12-16T15:20:35.437Z,30.53
2022-12-16T15:23:22.239Z,30.97
2022-12-16T15:26:12.706Z,29.33
2022-12-16T15:29:01.038Z,27.73
2022-12-16T15:31:51.070Z,32.10
2022-12-16T15:34:42.976Z,30.20
2022-12-16T15:37:49.108Z,32.40
2022-12-16T15:40:42.451Z,29.67
2022-12-16T15:43:46.886Z,32.63
2022-12-16T15:46:38.607Z,31.53
2022-12-16T15:49:33.717Z,27.50
2022-12-16T15:52:19.281Z,25.47
2022-12-16T15:55:10.166Z,22.03
2022-12-16T15:57:57.158Z,19.50
2022-12-16T16:00:44.872Z,17.47
2022-12-16T16:03:42.352Z,13.83
2022-12-16T16:06:36.762Z,14.43
2022-12-16T16:09:31.898Z,13.33
2022-12-16T16:12:23.668Z,16.27
2022-12-16T16:15:10.229Z,16.67
2022-12-16T16:17:56.647Z,18.40
2022-12-16T16:20:42.219Z,18.30
2022-12-16T16:23:28.018Z,15.37
2022-12-16T16:26:14.188Z,15.70
2022-12-16T16:28:59.622Z,13.60
2022-12-16T16:31:46.601Z,18.20
2022-12-16T16:34:32.137Z,22.07
2022-12-16T16:37:18.029Z,18.77
2022-12-16T16:40:03.541Z,21.47
2022-12-16T16:42:49.434Z,22.47
2022-12-16T16:45:35.149Z,19.00
2022-12-16T16:48:28.336Z,20.87
2022-12-16T16:51:15.602Z,22.90
2022-12-16T16:54:01.226Z,20.27
2022-12-16T16:56:49.599Z,20.10
2022-12-16T16:59:34.707Z,24.17
2022-12-16T17:02:20.250Z,19.80
2022-12-16T17:05:07.321Z,16.27
2022-12-16T17:07:54.159Z,17.60
2022-12-16T17:10:39.655Z,18.63
2022-12-16T17:13:24.591Z,20.83
2022-12-16T17:16:10.133Z,24.23
2022-12-16T17:18:55.539Z,23.53
2022-12-16T17:21:42.227Z,25.77
2022-12-16T17:24:27.776Z,26.47
2022-12-16T17:27:12.863Z,22.10
2022-12-16T17:29:58.243Z,24.43
2022-12-16T17:32:43.714Z,22.97
2022-12-16T17:35:30.048Z,27.03
2022-12-16T17:38:17.335Z,28.10
2022-12-16T17:41:02.607Z,24.47
2022-12-16T17:43:48.180Z,24.90
2022-12-16T17:46:33.517Z,26.07
2022-12-16T17:49:18.954Z,25.57
2022-12-16T17:52:04.345Z,20.17
2022-12-16T17:54:50.968Z,13.27
2022-12-16T17:57:36.405Z,21.87
2022-12-16T18:00:22.426Z,19.23
2022-12-16T18:03:08.075Z,12.80
2022-12-16T18:05:53.895Z,14.80
2022-12-16T18:08:39.252Z,15.60
2022-12-16T18:11:25.946Z,15.37
2022-12-16T18:14:11.446Z,17.73
2022-12-16T18:16:56.800Z,16.00
2022-12-16T18:19:42.185Z,14.53
2022-12-16T18:22:27.496Z,12.37
2022-12-16T18:25:24.071Z,12.13
2022-12-16T18:28:11.078Z,14.13
2022-12-16T18:30:56.634Z,15.53
2022-12-16T18:33:41.727Z,15.70
2022-12-16T18:36:27.111Z,14.67
2022-12-16T18:39:12.481Z,15.07
2022-12-16T18:42:01.214Z,14.23
2022-12-16T18:44:47.877Z,15.23
2022-12-16T18:47:33.303Z,13.20
2022-12-16T18:50:28.677Z,14.87
2022-12-16T18:53:17.058Z,14.37
2022-12-16T18:56:02.341Z,13.33
2022-12-16T18:58:51.855Z,14.50
2022-12-16T19:01:38.922Z,14.60
2022-12-16T19:04:24.271Z,16.50
2022-12-16T19:07:09.661Z,22.40
2022-12-16T19:09:55.131Z,20.30
2022-12-16T19:12:40.481Z,18.47
2022-12-16T19:15:26.754Z,18.87
2022-12-16T19:18:13.415Z,19.33
2022-12-16T19:20:58.866Z,20.27
2022-12-16T19:23:44.364Z,19.17
2022-12-16T19:26:29.857Z,20.07
2022-12-16T19:29:14.979Z,23.63
2022-12-16T19:32:00.357Z,23.90
2022-12-16T19:34:52.150Z,21.23
2022-12-16T19:37:37.713Z,22.20
2022-12-16T19:40:23.874Z,15.07
2022-12-16T19:43:11.493Z,14.70
2022-12-16T19:45:57.073Z,15.83
2022-12-16T19:48:42.291Z,16.43
2022-12-16T19:51:29.045Z,17.87
2022-12-16T19:54:14.292Z,22.87
2022-12-16T19:56:59.299Z,27.23
2022-12-16T19:59:44.911Z,26.10
2022-12-16T20:02:31.206Z,24.17
2022-12-16T20:05:16.909Z,27.73
2022-12-16T20:08:06.408Z,28.77
2022-12-16T20:10:51.941Z,19.17
2022-12-16T20:13:37.022Z,19.67
2022-12-16T20:16:23.119Z,19.20
2022-12-16T20:19:08.502Z,15.87
2022-12-16T20:21:56.521Z,17.67
2022-12-16T20:25:01.686Z,19.70
2022-12-16T20:27:46.981Z,18.50
2022-12-16T20:30:32.350Z,17.50
2022-12-16T20:33:17.854Z,32.80
2022-12-16T20:36:13.801Z,23.33
2022-12-16T20:38:59.203Z,23.93
2022-12-16T20:41:45.909Z,17.67
2022-12-16T20:44:31.321Z,20.50
2022-12-16T20:47:16.913Z,21.13
2022-12-16T20:50:02.361Z,25.60
2022-12-16T20:52:47.782Z,25.40
2022-12-16T20:55:33.063Z,24.77
2022-12-16T20:58:19.858Z,27.07
2022-12-16T21:01:10.364Z,25.53
2022-12-16T21:07:02.798Z,26.33
2022-12-16T21:09:47.995Z,29.97
2022-12-16T21:12:33.434Z,28.97
2022-12-16T21:15:20.396Z,26.23
2022-12-16T21:18:05.911Z,22.50
2022-12-16T21:21:02.938Z,32.00
2022-12-16T21:23:48.650Z,32.57
2022-12-16T21:26:34.025Z,34.70
2022-12-16T21:29:19.153Z,27.40
2022-12-16T21:32:05.944Z,30.83
2022-12-16T21:34:51.821Z,27.93
2022-12-16T21:37:37.663Z,31.10
2022-12-16T21:40:23.651Z,36.57
2022-12-16T21:43:09.060Z,33.13
2022-12-16T21:49:01.354Z,33.57
2022-12-16T21:51:46.782Z,31.20
2022-12-16T21:54:32.263Z,33.33
2022-12-16T21:57:17.700Z,37.60
2022-12-16T22:00:03.214Z,39.20
2022-12-16T22:02:59.863Z,35.10
2022-12-16T22:05:48.567Z,34.03
2022-12-16T22:08:34.007Z,37.70
2022-12-16T22:11:26.529Z,36.13
2022-12-16T22:14:11.728Z,30.20
2022-12-16T22:16:57.184Z,33.50
2022-12-16T22:19:42.939Z,35.77
2022-12-16T22:22:29.871Z,34.67
2022-12-16T22:25:15.330Z,35.93
2022-12-16T22:28:00.754Z,32.13
2022-12-16T22:30:46.206Z,34.13
2022-12-16T22:33:31.458Z,35.00
2022-12-16T22:36:18.854Z,16.90
2022-12-16T22:39:05.567Z,33.07
2022-12-16T22:41:50.209Z,28.83
2022-12-16T22:44:35.613Z,35.17
2022-12-16T22:47:21.017Z,28.43
2022-12-16T22:50:06.301Z,29.43
2022-12-16T22:52:52.000Z,30.17
2022-12-16T22:55:38.753Z,36.77
2022-12-16T22:58:28.190Z,36.53
2022-12-16T23:01:13.863Z,40.73
2022-12-16T23:03:59.340Z,38.67
2022-12-16T23:06:44.712Z,33.50
2022-12-16T23:09:30.247Z,35.30
2022-12-16T23:12:17.082Z,37.23
2022-12-16T23:15:02.394Z,38.77
2022-12-16T23:17:47.569Z,39.13
2022-12-16T23:20:33.044Z,40.53
2022-12-16T23:23:19.089Z,26.07
2022-12-16T23:26:20.059Z,40.67
2022-12-16T23:29:10.322Z,41.03
2022-12-16T23:31:56.542Z,46.90
2022-12-16T23:32:31.380Z,30.97
2022-12-16T23:34:45.795Z,44.70
2022-12-16T23:37:31.387Z,43.10
2022-12-16T23:40:16.603Z,41.50
2022-12-16T23:43:01.191Z,38.70
2022-12-16T23:45:48.059Z,42.80
2022-12-16T23:48:33.732Z,40.60
2022-12-16T23:51:19.161Z,43.47
2022-12-16T23:54:05.577Z,39.97
2022-12-16T23:56:51.040Z,36.07
2022-12-16T23:59:36.394Z,36.20
